sensor_id;sensor_type;location;lat;lon;timestamp;P1;durP1;ratioP1;P2;durP2;ratioP2
51927;SDS011;37953;52.806;18.270;2024-02-04T00:00:18;15.13;;;2.38;;
51927;SDS011;37953;52.806;18.270;2024-02-04T00:03:04;9.85;;;2.30;;
51927;SDS011;37953;52.806;18.270;2024-02-04T00:05:31;13.32;;;2.28;;
51927;SDS011;37953;52.806;18.270;2024-02-04T00:07:57;11.95;;;2.20;;
51927;SDS011;37953;52.806;18.270;2024-02-04T00:10:23;10.60;;;2.30;;
51927;SDS011;37953;52.806;18.270;2024-02-04T00:12:49;8.10;;;2.38;;
51927;SDS011;37953;52.806;18.270;2024-02-04T00:15:15;11.02;;;2.50;;
51927;SDS011;37953;52.806;18.270;2024-02-04T00:20:11;10.23;;;2.17;;
51927;SDS011;37953;52.806;18.270;2024-02-04T00:22:37;12.32;;;2.17;;
51927;SDS011;37953;52.806;18.270;2024-02-04T00:25:03;10.85;;;2.60;;
51927;SDS011;37953;52.806;18.270;2024-02-04T00:27:37;12.63;;;2.60;;
51927;SDS011;37953;52.806;18.270;2024-02-04T00:30:04;9.63;;;2.55;;
51927;SDS011;37953;52.806;18.270;2024-02-04T00:32:30;8.80;;;2.22;;
51927;SDS011;37953;52.806;18.270;2024-02-04T00:34:56;8.88;;;1.92;;
51927;SDS011;37953;52.806;18.270;2024-02-04T00:37:22;12.82;;;2.58;;
51927;SDS011;37953;52.806;18.270;2024-02-04T00:39:48;11.60;;;2.35;;
51927;SDS011;37953;52.806;18.270;2024-02-04T00:42:15;14.00;;;2.13;;
51927;SDS011;37953;52.806;18.270;2024-02-04T00:44:40;22.95;;;2.67;;
51927;SDS011;37953;52.806;18.270;2024-02-04T00:47:07;15.73;;;2.40;;
51927;SDS011;37953;52.806;18.270;2024-02-04T01:19:46;275.10;;;9.10;;
51927;SDS011;37953;52.806;18.270;2024-02-04T01:22:12;11.00;;;2.83;;
51927;SDS011;37953;52.806;18.270;2024-02-04T01:24:38;14.07;;;2.47;;
51927;SDS011;37953;52.806;18.270;2024-02-04T01:27:04;11.48;;;2.45;;
51927;SDS011;37953;52.806;18.270;2024-02-04T01:29:30;17.42;;;2.40;;
51927;SDS011;37953;52.806;18.270;2024-02-04T01:31:56;14.32;;;2.17;;
51927;SDS011;37953;52.806;18.270;2024-02-04T01:34:22;10.65;;;2.05;;
51927;SDS011;37953;52.806;18.270;2024-02-04T01:36:49;20.45;;;2.70;;
51927;SDS011;37953;52.806;18.270;2024-02-04T01:39:14;9.25;;;1.83;;
51927;SDS011;37953;52.806;18.270;2024-02-04T01:41:41;13.10;;;2.00;;
51927;SDS011;37953;52.806;18.270;2024-02-04T01:44:10;17.50;;;3.22;;
51927;SDS011;37953;52.806;18.270;2024-02-04T01:46:36;13.52;;;2.55;;
51927;SDS011;37953;52.806;18.270;2024-02-04T01:49:03;12.02;;;2.10;;
51927;SDS011;37953;52.806;18.270;2024-02-04T01:51:29;19.27;;;2.42;;
51927;SDS011;37953;52.806;18.270;2024-02-04T01:53:55;12.63;;;2.10;;
51927;SDS011;37953;52.806;18.270;2024-02-04T01:56:21;23.05;;;2.65;;
51927;SDS011;37953;52.806;18.270;2024-02-04T01:58:47;9.85;;;2.08;;
51927;SDS011;37953;52.806;18.270;2024-02-04T02:01:14;12.90;;;2.10;;
51927;SDS011;37953;52.806;18.270;2024-02-04T02:03:49;11.75;;;2.30;;
51927;SDS011;37953;52.806;18.270;2024-02-04T02:06:17;12.95;;;2.15;;
51927;SDS011;37953;52.806;18.270;2024-02-04T02:08:44;14.55;;;2.55;;
51927;SDS011;37953;52.806;18.270;2024-02-04T02:11:11;14.40;;;2.10;;
51927;SDS011;37953;52.806;18.270;2024-02-04T02:13:43;15.80;;;2.75;;
51927;SDS011;37953;52.806;18.270;2024-02-04T02:16:20;16.35;;;2.53;;
51927;SDS011;37953;52.806;18.270;2024-02-04T02:19:09;15.35;;;2.22;;
51927;SDS011;37953;52.806;18.270;2024-02-04T02:24:38;18.35;;;2.70;;
51927;SDS011;37953;52.806;18.270;2024-02-04T02:27:07;15.27;;;2.80;;
51927;SDS011;37953;52.806;18.270;2024-02-04T02:29:34;17.98;;;2.28;;
51927;SDS011;37953;52.806;18.270;2024-02-04T02:32:01;12.00;;;2.08;;
51927;SDS011;37953;52.806;18.270;2024-02-04T02:34:29;14.68;;;2.28;;
51927;SDS011;37953;52.806;18.270;2024-02-04T02:39:42;12.85;;;2.58;;
51927;SDS011;37953;52.806;18.270;2024-02-04T02:42:31;13.57;;;2.70;;
51927;SDS011;37953;52.806;18.270;2024-02-04T02:45:09;12.20;;;2.92;;
51927;SDS011;37953;52.806;18.270;2024-02-04T02:47:36;6.78;;;1.88;;
51927;SDS011;37953;52.806;18.270;2024-02-04T02:50:05;12.07;;;2.53;;
51927;SDS011;37953;52.806;18.270;2024-02-04T02:52:32;13.75;;;2.83;;
51927;SDS011;37953;52.806;18.270;2024-02-04T02:54:58;14.93;;;2.90;;
51927;SDS011;37953;52.806;18.270;2024-02-04T02:57:24;9.52;;;2.38;;
51927;SDS011;37953;52.806;18.270;2024-02-04T02:59:51;10.95;;;2.90;;
51927;SDS011;37953;52.806;18.270;2024-02-04T03:02:16;10.35;;;2.40;;
51927;SDS011;37953;52.806;18.270;2024-02-04T03:04:43;12.95;;;2.42;;
51927;SDS011;37953;52.806;18.270;2024-02-04T03:07:09;11.63;;;2.58;;
51927;SDS011;37953;52.806;18.270;2024-02-04T03:09:35;12.18;;;2.63;;
51927;SDS011;37953;52.806;18.270;2024-02-04T03:12:01;12.68;;;2.92;;
51927;SDS011;37953;52.806;18.270;2024-02-04T03:14:27;12.35;;;2.40;;
51927;SDS011;37953;52.806;18.270;2024-02-04T03:16:53;11.70;;;2.17;;
51927;SDS011;37953;52.806;18.270;2024-02-04T03:21:49;11.57;;;2.08;;
51927;SDS011;37953;52.806;18.270;2024-02-04T03:24:15;13.70;;;2.75;;
51927;SDS011;37953;52.806;18.270;2024-02-04T03:26:41;17.70;;;2.47;;
51927;SDS011;37953;52.806;18.270;2024-02-04T03:29:07;14.80;;;2.63;;
51927;SDS011;37953;52.806;18.270;2024-02-04T03:31:33;15.25;;;2.88;;
51927;SDS011;37953;52.806;18.270;2024-02-04T03:33:59;12.50;;;3.03;;
51927;SDS011;37953;52.806;18.270;2024-02-04T03:36:26;18.20;;;3.35;;
51927;SDS011;37953;52.806;18.270;2024-02-04T03:38:53;14.43;;;3.03;;
51927;SDS011;37953;52.806;18.270;2024-02-04T03:41:19;12.27;;;2.75;;
51927;SDS011;37953;52.806;18.270;2024-02-04T03:43:45;15.15;;;2.65;;
51927;SDS011;37953;52.806;18.270;2024-02-04T03:46:15;18.77;;;3.03;;
51927;SDS011;37953;52.806;18.270;2024-02-04T03:48:42;14.35;;;2.80;;
51927;SDS011;37953;52.806;18.270;2024-02-04T03:53:36;14.80;;;2.80;;
51927;SDS011;37953;52.806;18.270;2024-02-04T03:56:02;12.75;;;2.40;;
51927;SDS011;37953;52.806;18.270;2024-02-04T03:58:28;14.90;;;2.30;;
51927;SDS011;37953;52.806;18.270;2024-02-04T04:00:57;11.27;;;2.45;;
51927;SDS011;37953;52.806;18.270;2024-02-04T04:03:24;12.13;;;2.40;;
51927;SDS011;37953;52.806;18.270;2024-02-04T04:05:50;13.90;;;2.75;;
51927;SDS011;37953;52.806;18.270;2024-02-04T04:08:17;16.23;;;2.55;;
51927;SDS011;37953;52.806;18.270;2024-02-04T04:10:44;14.73;;;2.78;;
51927;SDS011;37953;52.806;18.270;2024-02-04T04:13:11;13.48;;;2.90;;
51927;SDS011;37953;52.806;18.270;2024-02-04T04:15:38;11.30;;;2.33;;
51927;SDS011;37953;52.806;18.270;2024-02-04T04:18:04;17.05;;;2.83;;
51927;SDS011;37953;52.806;18.270;2024-02-04T04:20:31;10.40;;;2.58;;
51927;SDS011;37953;52.806;18.270;2024-02-04T04:22:57;12.93;;;2.42;;
51927;SDS011;37953;52.806;18.270;2024-02-04T04:25:23;13.15;;;2.50;;
51927;SDS011;37953;52.806;18.270;2024-02-04T04:27:49;16.60;;;2.42;;
51927;SDS011;37953;52.806;18.270;2024-02-04T04:30:15;13.88;;;2.90;;
51927;SDS011;37953;52.806;18.270;2024-02-04T04:32:41;14.43;;;2.42;;
51927;SDS011;37953;52.806;18.270;2024-02-04T04:35:07;14.43;;;2.47;;
51927;SDS011;37953;52.806;18.270;2024-02-04T04:37:33;12.95;;;2.38;;
51927;SDS011;37953;52.806;18.270;2024-02-04T04:40:02;12.40;;;2.30;;
51927;SDS011;37953;52.806;18.270;2024-02-04T04:42:28;22.25;;;2.47;;
51927;SDS011;37953;52.806;18.270;2024-02-04T04:44:54;20.50;;;2.13;;
51927;SDS011;37953;52.806;18.270;2024-02-04T04:47:20;12.98;;;2.05;;
51927;SDS011;37953;52.806;18.270;2024-02-04T04:49:46;133.35;;;6.60;;
51927;SDS011;37953;52.806;18.270;2024-02-04T04:52:12;13.13;;;2.10;;
51927;SDS011;37953;52.806;18.270;2024-02-04T04:54:39;13.77;;;1.90;;
51927;SDS011;37953;52.806;18.270;2024-02-04T04:57:05;23.30;;;2.08;;
51927;SDS011;37953;52.806;18.270;2024-02-04T04:59:32;14.35;;;1.85;;
51927;SDS011;37953;52.806;18.270;2024-02-04T05:01:58;16.92;;;2.10;;
51927;SDS011;37953;52.806;18.270;2024-02-04T05:04:24;8.70;;;2.28;;
51927;SDS011;37953;52.806;18.270;2024-02-04T05:06:51;11.10;;;2.15;;
51927;SDS011;37953;52.806;18.270;2024-02-04T05:09:17;9.65;;;1.75;;
51927;SDS011;37953;52.806;18.270;2024-02-04T05:11:47;11.63;;;2.25;;
51927;SDS011;37953;52.806;18.270;2024-02-04T05:14:16;12.95;;;2.92;;
51927;SDS011;37953;52.806;18.270;2024-02-04T05:16:42;9.57;;;2.03;;
51927;SDS011;37953;52.806;18.270;2024-02-04T05:19:09;14.00;;;2.05;;
51927;SDS011;37953;52.806;18.270;2024-02-04T05:21:37;13.50;;;2.13;;
51927;SDS011;37953;52.806;18.270;2024-02-04T05:24:13;12.18;;;1.98;;
51927;SDS011;37953;52.806;18.270;2024-02-04T05:26:39;20.73;;;2.53;;
51927;SDS011;37953;52.806;18.270;2024-02-04T05:29:05;14.43;;;2.20;;
51927;SDS011;37953;52.806;18.270;2024-02-04T05:31:31;21.60;;;2.42;;
51927;SDS011;37953;52.806;18.270;2024-02-04T05:33:57;19.55;;;2.40;;
51927;SDS011;37953;52.806;18.270;2024-02-04T05:36:26;11.77;;;2.03;;
51927;SDS011;37953;52.806;18.270;2024-02-04T05:38:52;12.90;;;2.13;;
51927;SDS011;37953;52.806;18.270;2024-02-04T05:41:18;10.63;;;1.95;;
51927;SDS011;37953;52.806;18.270;2024-02-04T05:43:44;16.63;;;1.88;;
51927;SDS011;37953;52.806;18.270;2024-02-04T05:46:10;13.02;;;2.65;;
51927;SDS011;37953;52.806;18.270;2024-02-04T05:48:39;12.27;;;2.15;;
51927;SDS011;37953;52.806;18.270;2024-02-04T05:51:07;13.13;;;2.30;;
51927;SDS011;37953;52.806;18.270;2024-02-04T05:53:33;17.10;;;2.38;;
51927;SDS011;37953;52.806;18.270;2024-02-04T05:55:59;13.77;;;1.90;;
51927;SDS011;37953;52.806;18.270;2024-02-04T05:58:25;9.38;;;1.90;;
51927;SDS011;37953;52.806;18.270;2024-02-04T06:00:51;13.55;;;2.13;;
51927;SDS011;37953;52.806;18.270;2024-02-04T06:03:17;12.70;;;2.00;;
51927;SDS011;37953;52.806;18.270;2024-02-04T06:05:43;10.10;;;2.15;;
51927;SDS011;37953;52.806;18.270;2024-02-04T06:08:09;12.32;;;2.47;;
51927;SDS011;37953;52.806;18.270;2024-02-04T06:10:35;14.63;;;2.60;;
51927;SDS011;37953;52.806;18.270;2024-02-04T06:13:02;17.52;;;2.97;;
51927;SDS011;37953;52.806;18.270;2024-02-04T06:15:28;12.77;;;2.50;;
51927;SDS011;37953;52.806;18.270;2024-02-04T06:17:54;16.35;;;2.50;;
51927;SDS011;37953;52.806;18.270;2024-02-04T06:20:20;16.17;;;2.50;;
51927;SDS011;37953;52.806;18.270;2024-02-04T06:22:46;19.40;;;2.25;;
51927;SDS011;37953;52.806;18.270;2024-02-04T06:25:12;11.65;;;2.40;;
51927;SDS011;37953;52.806;18.270;2024-02-04T06:27:38;15.55;;;2.85;;
51927;SDS011;37953;52.806;18.270;2024-02-04T06:30:05;13.77;;;2.85;;
51927;SDS011;37953;52.806;18.270;2024-02-04T06:32:35;14.90;;;2.87;;
51927;SDS011;37953;52.806;18.270;2024-02-04T06:35:01;14.02;;;2.67;;
51927;SDS011;37953;52.806;18.270;2024-02-04T06:37:28;12.73;;;2.63;;
51927;SDS011;37953;52.806;18.270;2024-02-04T06:39:54;16.38;;;2.42;;
51927;SDS011;37953;52.806;18.270;2024-02-04T06:44:50;13.63;;;2.45;;
51927;SDS011;37953;52.806;18.270;2024-02-04T06:47:17;15.02;;;2.58;;
51927;SDS011;37953;52.806;18.270;2024-02-04T06:52:12;27.05;;;2.90;;
51927;SDS011;37953;52.806;18.270;2024-02-04T06:54:39;7.90;;;2.35;;
51927;SDS011;37953;52.806;18.270;2024-02-04T06:57:05;11.13;;;2.17;;
51927;SDS011;37953;52.806;18.270;2024-02-04T06:59:31;14.48;;;3.00;;
51927;SDS011;37953;52.806;18.270;2024-02-04T07:01:57;11.15;;;2.15;;
51927;SDS011;37953;52.806;18.270;2024-02-04T07:04:23;13.35;;;2.40;;
51927;SDS011;37953;52.806;18.270;2024-02-04T07:06:52;15.32;;;3.30;;
51927;SDS011;37953;52.806;18.270;2024-02-04T07:09:18;12.85;;;2.20;;
51927;SDS011;37953;52.806;18.270;2024-02-04T07:11:44;11.57;;;2.70;;
51927;SDS011;37953;52.806;18.270;2024-02-04T07:14:11;16.88;;;3.20;;
51927;SDS011;37953;52.806;18.270;2024-02-04T07:16:37;12.30;;;2.55;;
51927;SDS011;37953;52.806;18.270;2024-02-04T07:19:03;13.40;;;2.60;;
51927;SDS011;37953;52.806;18.270;2024-02-04T07:21:30;12.55;;;2.78;;
51927;SDS011;37953;52.806;18.270;2024-02-04T07:23:56;15.52;;;2.83;;
51927;SDS011;37953;52.806;18.270;2024-02-04T07:26:22;14.15;;;3.03;;
51927;SDS011;37953;52.806;18.270;2024-02-04T07:28:48;14.60;;;2.67;;
51927;SDS011;37953;52.806;18.270;2024-02-04T07:31:14;11.90;;;2.63;;
51927;SDS011;37953;52.806;18.270;2024-02-04T07:33:40;14.35;;;3.22;;
51927;SDS011;37953;52.806;18.270;2024-02-04T07:36:07;17.50;;;3.10;;
51927;SDS011;37953;52.806;18.270;2024-02-04T07:38:34;18.15;;;3.95;;
51927;SDS011;37953;52.806;18.270;2024-02-04T07:41:16;15.50;;;3.28;;
51927;SDS011;37953;52.806;18.270;2024-02-04T07:43:42;13.85;;;3.22;;
51927;SDS011;37953;52.806;18.270;2024-02-04T07:46:09;15.80;;;3.28;;
51927;SDS011;37953;52.806;18.270;2024-02-04T07:48:35;15.00;;;3.38;;
51927;SDS011;37953;52.806;18.270;2024-02-04T07:51:01;18.08;;;3.53;;
51927;SDS011;37953;52.806;18.270;2024-02-04T07:53:28;14.20;;;3.30;;
51927;SDS011;37953;52.806;18.270;2024-02-04T07:55:53;14.65;;;3.08;;
51927;SDS011;37953;52.806;18.270;2024-02-04T07:58:20;18.08;;;3.65;;
51927;SDS011;37953;52.806;18.270;2024-02-04T08:00:46;28.00;;;3.17;;
51927;SDS011;37953;52.806;18.270;2024-02-04T08:03:13;15.52;;;4.25;;
51927;SDS011;37953;52.806;18.270;2024-02-04T08:05:39;19.38;;;4.55;;
51927;SDS011;37953;52.806;18.270;2024-02-04T08:08:05;16.33;;;3.58;;
51927;SDS011;37953;52.806;18.270;2024-02-04T08:10:31;22.25;;;3.63;;
51927;SDS011;37953;52.806;18.270;2024-02-04T08:12:58;18.33;;;3.45;;
51927;SDS011;37953;52.806;18.270;2024-02-04T08:15:24;16.95;;;3.22;;
51927;SDS011;37953;52.806;18.270;2024-02-04T08:17:50;11.95;;;2.83;;
51927;SDS011;37953;52.806;18.270;2024-02-04T08:20:19;14.63;;;2.72;;
51927;SDS011;37953;52.806;18.270;2024-02-04T08:22:45;22.20;;;3.72;;
51927;SDS011;37953;52.806;18.270;2024-02-04T08:25:11;19.33;;;3.90;;
51927;SDS011;37953;52.806;18.270;2024-02-04T08:27:37;26.42;;;3.80;;
51927;SDS011;37953;52.806;18.270;2024-02-04T08:30:03;19.15;;;3.92;;
51927;SDS011;37953;52.806;18.270;2024-02-04T08:32:30;22.88;;;3.63;;
51927;SDS011;37953;52.806;18.270;2024-02-04T08:34:56;15.07;;;3.13;;
51927;SDS011;37953;52.806;18.270;2024-02-04T08:37:22;19.45;;;4.10;;
51927;SDS011;37953;52.806;18.270;2024-02-04T08:39:48;17.75;;;4.00;;
51927;SDS011;37953;52.806;18.270;2024-02-04T08:42:15;17.45;;;3.45;;
51927;SDS011;37953;52.806;18.270;2024-02-04T08:44:49;15.65;;;3.45;;
51927;SDS011;37953;52.806;18.270;2024-02-04T08:47:16;18.05;;;3.58;;
51927;SDS011;37953;52.806;18.270;2024-02-04T08:49:42;13.60;;;3.05;;
51927;SDS011;37953;52.806;18.270;2024-02-04T08:52:09;10.52;;;2.58;;
51927;SDS011;37953;52.806;18.270;2024-02-04T08:54:34;14.82;;;2.95;;
51927;SDS011;37953;52.806;18.270;2024-02-04T08:57:01;11.93;;;2.53;;
51927;SDS011;37953;52.806;18.270;2024-02-04T08:59:27;12.73;;;2.75;;
51927;SDS011;37953;52.806;18.270;2024-02-04T09:01:53;12.68;;;2.90;;
51927;SDS011;37953;52.806;18.270;2024-02-04T09:04:21;17.70;;;3.67;;
51927;SDS011;37953;52.806;18.270;2024-02-04T09:06:48;12.57;;;2.92;;
51927;SDS011;37953;52.806;18.270;2024-02-04T09:09:15;14.52;;;2.78;;
51927;SDS011;37953;52.806;18.270;2024-02-04T09:11:41;13.63;;;3.30;;
51927;SDS011;37953;52.806;18.270;2024-02-04T09:14:07;13.07;;;2.78;;
51927;SDS011;37953;52.806;18.270;2024-02-04T09:16:33;17.30;;;3.75;;
51927;SDS011;37953;52.806;18.270;2024-02-04T09:19:02;22.95;;;3.80;;
51927;SDS011;37953;52.806;18.270;2024-02-04T09:21:31;19.40;;;4.50;;
51927;SDS011;37953;52.806;18.270;2024-02-04T09:23:57;14.25;;;3.25;;
51927;SDS011;37953;52.806;18.270;2024-02-04T09:26:23;15.95;;;3.50;;
51927;SDS011;37953;52.806;18.270;2024-02-04T09:28:49;21.02;;;3.15;;
51927;SDS011;37953;52.806;18.270;2024-02-04T09:31:15;15.73;;;4.00;;
51927;SDS011;37953;52.806;18.270;2024-02-04T09:33:42;14.50;;;3.25;;
51927;SDS011;37953;52.806;18.270;2024-02-04T09:36:09;27.63;;;4.50;;
51927;SDS011;37953;52.806;18.270;2024-02-04T09:38:35;10.93;;;3.17;;
51927;SDS011;37953;52.806;18.270;2024-02-04T09:41:01;20.70;;;3.92;;
51927;SDS011;37953;52.806;18.270;2024-02-04T09:43:31;13.38;;;3.03;;
51927;SDS011;37953;52.806;18.270;2024-02-04T09:45:59;16.17;;;3.03;;
51927;SDS011;37953;52.806;18.270;2024-02-04T09:48:26;18.73;;;4.55;;
51927;SDS011;37953;52.806;18.270;2024-02-04T09:51:06;12.13;;;2.78;;
51927;SDS011;37953;52.806;18.270;2024-02-04T09:53:32;10.85;;;3.40;;
51927;SDS011;37953;52.806;18.270;2024-02-04T09:58:31;15.68;;;2.97;;
51927;SDS011;37953;52.806;18.270;2024-02-04T10:00:59;17.13;;;3.03;;
51927;SDS011;37953;52.806;18.270;2024-02-04T10:03:25;14.05;;;2.78;;
51927;SDS011;37953;52.806;18.270;2024-02-04T10:05:52;18.48;;;3.47;;
51927;SDS011;37953;52.806;18.270;2024-02-04T10:08:19;12.15;;;2.78;;
51927;SDS011;37953;52.806;18.270;2024-02-04T10:10:46;20.92;;;3.20;;
51927;SDS011;37953;52.806;18.270;2024-02-04T10:13:12;15.93;;;3.00;;
51927;SDS011;37953;52.806;18.270;2024-02-04T10:15:42;13.52;;;3.50;;
51927;SDS011;37953;52.806;18.270;2024-02-04T10:18:08;13.10;;;2.90;;
51927;SDS011;37953;52.806;18.270;2024-02-04T10:20:34;12.23;;;3.58;;
51927;SDS011;37953;52.806;18.270;2024-02-04T10:23:00;16.25;;;4.68;;
51927;SDS011;37953;52.806;18.270;2024-02-04T10:25:27;15.57;;;3.10;;
51927;SDS011;37953;52.806;18.270;2024-02-04T10:27:53;13.45;;;2.78;;
51927;SDS011;37953;52.806;18.270;2024-02-04T10:30:20;23.27;;;3.88;;
51927;SDS011;37953;52.806;18.270;2024-02-04T10:32:49;12.40;;;3.80;;
51927;SDS011;37953;52.806;18.270;2024-02-04T10:35:17;12.82;;;3.20;;
51927;SDS011;37953;52.806;18.270;2024-02-04T10:37:52;10.63;;;2.65;;
51927;SDS011;37953;52.806;18.270;2024-02-04T10:40:18;18.17;;;3.40;;
51927;SDS011;37953;52.806;18.270;2024-02-04T10:42:45;20.60;;;3.75;;
51927;SDS011;37953;52.806;18.270;2024-02-04T10:45:12;13.00;;;3.85;;
51927;SDS011;37953;52.806;18.270;2024-02-04T10:47:41;11.02;;;2.85;;
51927;SDS011;37953;52.806;18.270;2024-02-04T10:50:16;39.75;;;4.22;;
51927;SDS011;37953;52.806;18.270;2024-02-04T10:52:42;19.33;;;4.18;;
51927;SDS011;37953;52.806;18.270;2024-02-04T10:55:12;13.25;;;2.70;;
51927;SDS011;37953;52.806;18.270;2024-02-04T10:57:40;13.73;;;3.13;;
51927;SDS011;37953;52.806;18.270;2024-02-04T11:00:07;11.82;;;2.67;;
51927;SDS011;37953;52.806;18.270;2024-02-04T11:02:34;8.45;;;2.60;;
51927;SDS011;37953;52.806;18.270;2024-02-04T11:05:02;11.40;;;3.20;;
51927;SDS011;37953;52.806;18.270;2024-02-04T11:07:33;15.55;;;3.13;;
51927;SDS011;37953;52.806;18.270;2024-02-04T11:10:00;11.90;;;3.13;;
51927;SDS011;37953;52.806;18.270;2024-02-04T11:12:29;16.45;;;3.67;;
51927;SDS011;37953;52.806;18.270;2024-02-04T11:14:58;14.77;;;3.90;;
51927;SDS011;37953;52.806;18.270;2024-02-04T11:25:54;15.18;;;3.03;;
51927;SDS011;37953;52.806;18.270;2024-02-04T11:28:23;15.40;;;3.42;;
51927;SDS011;37953;52.806;18.270;2024-02-04T11:31:01;8.77;;;2.80;;
51927;SDS011;37953;52.806;18.270;2024-02-04T11:33:27;13.10;;;3.17;;
51927;SDS011;37953;52.806;18.270;2024-02-04T11:36:00;15.07;;;3.42;;
51927;SDS011;37953;52.806;18.270;2024-02-04T11:38:29;13.57;;;3.28;;
51927;SDS011;37953;52.806;18.270;2024-02-04T11:41:05;15.85;;;4.00;;
51927;SDS011;37953;52.806;18.270;2024-02-04T11:43:35;22.85;;;3.53;;
51927;SDS011;37953;52.806;18.270;2024-02-04T11:46:05;11.15;;;2.67;;
51927;SDS011;37953;52.806;18.270;2024-02-04T11:48:34;12.45;;;2.78;;
51927;SDS011;37953;52.806;18.270;2024-02-04T11:51:03;12.65;;;2.90;;
51927;SDS011;37953;52.806;18.270;2024-02-04T11:53:42;10.63;;;2.97;;
51927;SDS011;37953;52.806;18.270;2024-02-04T11:56:10;11.68;;;2.70;;
51927;SDS011;37953;52.806;18.270;2024-02-04T11:58:37;12.38;;;2.88;;
51927;SDS011;37953;52.806;18.270;2024-02-04T12:01:04;15.90;;;3.88;;
51927;SDS011;37953;52.806;18.270;2024-02-04T12:03:31;12.23;;;3.35;;
51927;SDS011;37953;52.806;18.270;2024-02-04T12:05:58;13.07;;;3.85;;
51927;SDS011;37953;52.806;18.270;2024-02-04T12:08:25;11.82;;;3.30;;
51927;SDS011;37953;52.806;18.270;2024-02-04T12:11:01;13.52;;;3.78;;
51927;SDS011;37953;52.806;18.270;2024-02-04T12:13:28;12.68;;;3.05;;
51927;SDS011;37953;52.806;18.270;2024-02-04T12:15:54;13.10;;;3.47;;
51927;SDS011;37953;52.806;18.270;2024-02-04T12:18:21;11.13;;;3.13;;
51927;SDS011;37953;52.806;18.270;2024-02-04T12:20:47;11.75;;;2.88;;
51927;SDS011;37953;52.806;18.270;2024-02-04T12:23:17;12.18;;;2.60;;
51927;SDS011;37953;52.806;18.270;2024-02-04T12:25:53;9.85;;;2.63;;
51927;SDS011;37953;52.806;18.270;2024-02-04T12:28:19;10.50;;;2.85;;
51927;SDS011;37953;52.806;18.270;2024-02-04T12:30:55;9.88;;;2.63;;
51927;SDS011;37953;52.806;18.270;2024-02-04T12:33:22;13.93;;;3.20;;
51927;SDS011;37953;52.806;18.270;2024-02-04T12:35:54;13.80;;;3.00;;
51927;SDS011;37953;52.806;18.270;2024-02-04T12:38:21;12.60;;;2.95;;
51927;SDS011;37953;52.806;18.270;2024-02-04T12:40:48;19.33;;;3.53;;
51927;SDS011;37953;52.806;18.270;2024-02-04T12:43:14;15.13;;;3.88;;
51927;SDS011;37953;52.806;18.270;2024-02-04T12:45:40;14.55;;;3.35;;
51927;SDS011;37953;52.806;18.270;2024-02-04T12:48:07;10.40;;;3.17;;
51927;SDS011;37953;52.806;18.270;2024-02-04T12:50:36;15.77;;;4.03;;
51927;SDS011;37953;52.806;18.270;2024-02-04T12:53:04;10.85;;;2.60;;
51927;SDS011;37953;52.806;18.270;2024-02-04T12:55:32;16.60;;;3.10;;
51927;SDS011;37953;52.806;18.270;2024-02-04T12:58:03;15.10;;;2.92;;
51927;SDS011;37953;52.806;18.270;2024-02-04T13:00:35;14.82;;;4.00;;
51927;SDS011;37953;52.806;18.270;2024-02-04T13:03:03;13.48;;;4.50;;
51927;SDS011;37953;52.806;18.270;2024-02-04T13:05:41;13.95;;;4.35;;
51927;SDS011;37953;52.806;18.270;2024-02-04T13:08:07;12.82;;;3.78;;
51927;SDS011;37953;52.806;18.270;2024-02-04T13:10:33;19.70;;;4.47;;
51927;SDS011;37953;52.806;18.270;2024-02-04T13:13:05;15.93;;;3.58;;
51927;SDS011;37953;52.806;18.270;2024-02-04T13:15:40;12.95;;;3.42;;
51927;SDS011;37953;52.806;18.270;2024-02-04T13:18:18;10.30;;;2.92;;
51927;SDS011;37953;52.806;18.270;2024-02-04T13:20:44;12.57;;;3.47;;
51927;SDS011;37953;52.806;18.270;2024-02-04T13:23:11;11.27;;;3.00;;
51927;SDS011;37953;52.806;18.270;2024-02-04T13:25:41;12.23;;;2.80;;
51927;SDS011;37953;52.806;18.270;2024-02-04T13:28:08;14.38;;;4.20;;
51927;SDS011;37953;52.806;18.270;2024-02-04T13:30:33;16.45;;;3.50;;
51927;SDS011;37953;52.806;18.270;2024-02-04T13:33:00;12.27;;;3.53;;
51927;SDS011;37953;52.806;18.270;2024-02-04T13:35:29;14.15;;;3.65;;
51927;SDS011;37953;52.806;18.270;2024-02-04T13:37:56;13.38;;;3.85;;
51927;SDS011;37953;52.806;18.270;2024-02-04T13:40:22;9.05;;;3.08;;
51927;SDS011;37953;52.806;18.270;2024-02-04T13:42:51;41.70;;;15.73;;
51927;SDS011;37953;52.806;18.270;2024-02-04T13:45:17;27.88;;;10.00;;
51927;SDS011;37953;52.806;18.270;2024-02-04T13:47:43;26.80;;;10.43;;
51927;SDS011;37953;52.806;18.270;2024-02-04T13:50:09;18.95;;;7.78;;
51927;SDS011;37953;52.806;18.270;2024-02-04T13:52:36;18.45;;;6.13;;
51927;SDS011;37953;52.806;18.270;2024-02-04T13:55:03;16.52;;;5.25;;
51927;SDS011;37953;52.806;18.270;2024-02-04T13:57:31;19.95;;;6.93;;
51927;SDS011;37953;52.806;18.270;2024-02-04T13:59:58;24.20;;;7.65;;
51927;SDS011;37953;52.806;18.270;2024-02-04T14:02:25;12.75;;;4.78;;
51927;SDS011;37953;52.806;18.270;2024-02-04T14:04:59;20.00;;;6.15;;
51927;SDS011;37953;52.806;18.270;2024-02-04T14:07:25;15.23;;;6.55;;
51927;SDS011;37953;52.806;18.270;2024-02-04T14:09:52;26.95;;;9.30;;
51927;SDS011;37953;52.806;18.270;2024-02-04T14:12:19;12.27;;;4.40;;
51927;SDS011;37953;52.806;18.270;2024-02-04T14:14:44;21.67;;;5.45;;
51927;SDS011;37953;52.806;18.270;2024-02-04T14:17:11;16.48;;;5.40;;
51927;SDS011;37953;52.806;18.270;2024-02-04T14:19:37;16.08;;;5.50;;
51927;SDS011;37953;52.806;18.270;2024-02-04T14:22:04;17.48;;;4.50;;
51927;SDS011;37953;52.806;18.270;2024-02-04T14:24:30;14.45;;;3.28;;
51927;SDS011;37953;52.806;18.270;2024-02-04T14:26:57;23.67;;;4.15;;
51927;SDS011;37953;52.806;18.270;2024-02-04T14:29:26;15.45;;;4.32;;
51927;SDS011;37953;52.806;18.270;2024-02-04T14:31:52;14.63;;;4.60;;
51927;SDS011;37953;52.806;18.270;2024-02-04T14:34:18;18.38;;;5.68;;
51927;SDS011;37953;52.806;18.270;2024-02-04T14:36:44;16.17;;;5.57;;
51927;SDS011;37953;52.806;18.270;2024-02-04T14:39:10;14.77;;;5.30;;
51927;SDS011;37953;52.806;18.270;2024-02-04T14:41:36;17.40;;;7.72;;
51927;SDS011;37953;52.806;18.270;2024-02-04T14:44:02;19.77;;;8.05;;
51927;SDS011;37953;52.806;18.270;2024-02-04T14:46:29;35.00;;;5.13;;
51927;SDS011;37953;52.806;18.270;2024-02-04T14:48:55;11.85;;;4.03;;
51927;SDS011;37953;52.806;18.270;2024-02-04T14:51:21;16.00;;;3.95;;
51927;SDS011;37953;52.806;18.270;2024-02-04T14:53:47;17.50;;;4.40;;
51927;SDS011;37953;52.806;18.270;2024-02-04T14:56:13;16.33;;;3.85;;
51927;SDS011;37953;52.806;18.270;2024-02-04T14:58:39;12.85;;;3.78;;
51927;SDS011;37953;52.806;18.270;2024-02-04T15:01:05;19.52;;;4.90;;
51927;SDS011;37953;52.806;18.270;2024-02-04T15:03:31;17.27;;;5.03;;
51927;SDS011;37953;52.806;18.270;2024-02-04T15:05:58;17.13;;;5.88;;
51927;SDS011;37953;52.806;18.270;2024-02-04T15:08:23;14.45;;;4.30;;
51927;SDS011;37953;52.806;18.270;2024-02-04T15:10:50;14.07;;;4.88;;
51927;SDS011;37953;52.806;18.270;2024-02-04T15:13:16;16.27;;;3.95;;
51927;SDS011;37953;52.806;18.270;2024-02-04T15:15:42;14.23;;;3.85;;
51927;SDS011;37953;52.806;18.270;2024-02-04T15:18:10;13.88;;;3.97;;
51927;SDS011;37953;52.806;18.270;2024-02-04T15:20:37;27.90;;;4.82;;